Time;durP1;ratioP1;P1;durP2;ratioP2;P2;SDS_P1;SDS_P2;PMS_P1;PMS_P2;Temp;Humidity;BMP_temperature;BMP_pressure;BME280_temperature;BME280_humidity;BME280_pressure;Samples;Min_cycle;Max_cycle;Signal;HPM_P1;HPM_P2
2023/06/25 00:02:56;;;;;;;;;;;22.50;99.90;;;;;;8416233;28;19924;-72
2023/06/25 00:06:58;;;;;;;;;;;22.60;99.90;;;;;;8413913;28;19924;-72
2023/06/25 00:11:00;;;;;;;;;;;22.60;99.90;;;;;;8414581;28;20385;-72
2023/06/25 00:15:01;;;;;;;;;;;22.50;99.90;;;;;;8408373;28;19924;-72
2023/06/25 00:19:03;;;;;;;;;;;22.40;99.90;;;;;;8418316;28;19932;-73
2023/06/25 00:23:05;;;;;;;;;;;22.30;99.90;;;;;;8415999;28;20008;-72
2023/06/25 00:27:08;;;;;;;;;;;22.20;99.90;;;;;;8441409;27;19932;-72
2023/06/25 00:31:12;;;;;;;;;;;22.00;99.90;;;;;;8424781;28;19924;-72
2023/06/25 00:35:14;;;;;;;;;;;21.90;99.90;;;;;;8419820;28;20375;-72
2023/06/25 00:39:15;;;;;;;;;;;21.80;99.90;;;;;;8416067;28;19932;-72
2023/06/25 00:43:20;;;;;;;;;;;21.80;99.90;;;;;;8422680;28;19929;-72
2023/06/25 00:47:22;;;;;;;;;;;21.70;99.90;;;;;;8409230;28;19932;-72
2023/06/25 00:51:27;;;;;;;;;;;21.70;99.90;;;;;;8420456;28;20292;-73
2023/06/25 00:55:29;;;;;;;;;;;21.70;99.90;;;;;;8419384;28;19924;-72
2023/06/25 00:59:31;;;;;;;;;;;21.70;99.90;;;;;;8419973;28;19928;-72
2023/06/25 01:03:37;;;;;;;;;;;21.80;99.90;;;;;;8407014;28;19927;-72
2023/06/25 01:07:43;;;;;;;;;;;21.80;99.90;;;;;;8406754;28;20011;-72
2023/06/25 01:11:58;;;;;;;;;;;21.70;99.90;;;;;;8423898;28;19928;-72
2023/06/25 01:16:00;;;;;;;;;;;21.70;99.90;;;;;;8428528;28;20640;-72
2023/06/25 01:20:05;;;;;;;;;;;21.70;99.90;;;;;;8424303;28;19990;-72
2023/06/25 01:24:07;;;;;;;;;;;21.70;99.90;;;;;;8419554;28;19928;-72
2023/06/25 01:28:09;;;;;;;;;;;21.70;99.90;;;;;;8414486;28;19945;-72
2023/06/25 01:32:11;;;;;;;;;;;21.70;99.90;;;;;;8414766;28;19939;-72
2023/06/25 01:36:13;;;;;;;;;;;21.70;99.90;;;;;;8409424;28;20455;-72
2023/06/25 01:40:16;;;;;;;;;;;21.70;99.90;;;;;;8422127;28;19933;-72
2023/06/25 01:44:39;;;;;;;;;;;21.70;99.90;;;;;;8427636;28;19968;-72
2023/06/25 01:48:40;;;;;;;;;;;21.70;99.90;;;;;;8421565;28;20381;-72
2023/06/25 01:52:42;;;;;;;;;;;21.60;99.90;;;;;;8431874;28;19924;-72
2023/06/25 01:56:44;;;;;;;;;;;21.60;99.90;;;;;;8395072;28;19950;-72
2023/06/25 02:00:47;;;;;;;;;;;21.50;99.90;;;;;;8407300;28;19928;-72
2023/06/25 02:04:49;;;;;;;;;;;21.40;99.90;;;;;;8423779;28;20490;-72
2023/06/25 02:08:50;;;;;;;;;;;21.40;99.90;;;;;;8419866;28;20216;-72
2023/06/25 02:12:52;;;;;;;;;;;21.30;99.90;;;;;;8423260;28;19932;-72
2023/06/25 02:16:54;;;;;;;;;;;21.30;99.90;;;;;;8425510;28;20436;-72
2023/06/25 02:20:55;;;;;;;;;;;21.30;99.90;;;;;;8418159;28;19932;-72
2023/06/25 02:24:57;;;;;;;;;;;21.30;99.90;;;;;;8404855;28;19928;-72
2023/06/25 02:28:58;;;;;;;;;;;21.20;99.90;;;;;;8433397;27;19925;-72
2023/06/25 02:33:00;;;;;;;;;;;21.10;99.90;;;;;;8412529;28;19924;-72
2023/06/25 02:37:15;;;;;;;;;;;21.10;99.90;;;;;;8429507;28;19924;-72
2023/06/25 02:41:17;;;;;;;;;;;21.10;99.90;;;;;;8422909;28;19946;-72
2023/06/25 02:45:18;;;;;;;;;;;21.00;99.90;;;;;;8394947;28;19991;-72
2023/06/25 02:49:20;;;;;;;;;;;21.00;99.90;;;;;;8410533;28;19993;-72
2023/06/25 02:53:22;;;;;;;;;;;21.00;99.90;;;;;;8412430;28;20023;-73
2023/06/25 02:57:25;;;;;;;;;;;21.00;99.90;;;;;;8436324;27;20214;-72
2023/06/25 03:01:49;;;;;;;;;;;20.90;99.90;;;;;;8421068;28;19932;-72
2023/06/25 03:05:51;;;;;;;;;;;20.90;99.90;;;;;;8431482;27;19928;-72
2023/06/25 03:09:52;;;;;;;;;;;20.90;99.90;;;;;;8422852;28;19924;-72
2023/06/25 03:13:54;;;;;;;;;;;20.80;99.90;;;;;;8427775;28;19927;-72
2023/06/25 03:17:56;;;;;;;;;;;20.70;99.90;;;;;;8429507;28;19924;-72
2023/06/25 03:21:58;;;;;;;;;;;20.70;99.90;;;;;;8418750;28;19961;-72
2023/06/25 03:26:00;;;;;;;;;;;20.60;99.90;;;;;;8408053;28;20022;-72
2023/06/25 03:30:03;;;;;;;;;;;20.50;99.90;;;;;;8419527;28;19935;-73
2023/06/25 03:34:04;;;;;;;;;;;20.50;99.90;;;;;;8421580;28;19931;-72
2023/06/25 03:38:06;;;;;;;;;;;20.40;99.90;;;;;;8421878;28;19931;-72
2023/06/25 03:42:08;;;;;;;;;;;20.40;99.90;;;;;;8434269;27;19932;-72
2023/06/25 03:46:09;;;;;;;;;;;20.40;99.90;;;;;;8422754;28;20002;-72
2023/06/25 03:50:11;;;;;;;;;;;20.30;99.90;;;;;;8435899;28;19927;-72
2023/06/25 03:54:13;;;;;;;;;;;20.30;99.90;;;;;;8388264;28;19931;-72
2023/06/25 03:58:14;;;;;;;;;;;20.20;99.90;;;;;;8417860;27;19939;-72
2023/06/25 04:02:16;;;;;;;;;;;20.30;99.90;;;;;;8400044;28;20628;-72
2023/06/25 04:06:18;;;;;;;;;;;20.20;99.90;;;;;;8385667;28;19932;-72
2023/06/25 04:10:19;;;;;;;;;;;20.30;99.90;;;;;;8408028;28;21432;-72
2023/06/25 04:14:21;;;;;;;;;;;20.30;99.90;;;;;;8393860;28;20419;-72
2023/06/25 04:18:23;;;;;;;;;;;20.30;99.90;;;;;;8426315;28;19928;-73
2023/06/25 04:22:25;;;;;;;;;;;20.30;99.90;;;;;;8420297;28;20366;-72
2023/06/25 04:26:26;;;;;;;;;;;20.40;99.90;;;;;;8413365;28;19932;-72
2023/06/25 04:30:28;;;;;;;;;;;20.40;99.90;;;;;;8409159;28;19924;-73
2023/06/25 04:34:30;;;;;;;;;;;20.50;99.90;;;;;;8405848;28;19950;-72
2023/06/25 04:38:33;;;;;;;;;;;20.50;99.90;;;;;;8406605;28;19929;-72
2023/06/25 04:42:35;;;;;;;;;;;20.50;99.90;;;;;;8389425;28;19924;-72
2023/06/25 04:46:36;;;;;;;;;;;20.60;99.90;;;;;;8430148;27;19929;-72
2023/06/25 04:50:38;;;;;;;;;;;20.60;99.90;;;;;;8434598;27;19923;-72
2023/06/25 04:54:40;;;;;;;;;;;20.70;99.90;;;;;;8407975;28;20322;-72
2023/06/25 04:58:41;;;;;;;;;;;20.70;99.90;;;;;;8392555;28;19978;-72
2023/06/25 05:02:43;;;;;;;;;;;20.90;99.90;;;;;;8416664;28;19925;-72
2023/06/25 05:06:45;;;;;;;;;;;21.00;99.90;;;;;;8412805;28;19935;-72
2023/06/25 05:10:47;;;;;;;;;;;21.10;99.90;;;;;;8406598;28;20352;-72
2023/06/25 05:14:48;;;;;;;;;;;21.20;99.90;;;;;;8429058;28;19954;-72
2023/06/25 05:18:50;;;;;;;;;;;21.30;99.90;;;;;;8427257;28;19932;-72
2023/06/25 05:22:53;;;;;;;;;;;21.40;99.90;;;;;;8424305;28;19924;-72
2023/06/25 05:26:55;;;;;;;;;;;21.50;99.90;;;;;;8419059;28;19924;-72
2023/06/25 05:30:56;;;;;;;;;;;21.70;99.90;;;;;;8417675;28;19985;-72
2023/06/25 05:34:58;;;;;;;;;;;21.80;99.90;;;;;;8413902;28;19965;-72
2023/06/25 05:39:00;;;;;;;;;;;21.90;99.90;;;;;;8415611;28;19924;-72
2023/06/25 05:43:01;;;;;;;;;;;22.00;99.90;;;;;;8404886;28;20307;-72
2023/06/25 05:47:03;;;;;;;;;;;22.10;99.90;;;;;;8418684;28;19928;-72
2023/06/25 05:51:05;;;;;;;;;;;22.20;99.90;;;;;;8396568;28;20374;-72
2023/06/25 05:55:07;;;;;;;;;;;22.30;99.90;;;;;;8419546;28;19924;-72
2023/06/25 05:59:09;;;;;;;;;;;22.40;99.90;;;;;;8417318;28;20378;-72
2023/06/25 06:03:10;;;;;;;;;;;22.50;99.90;;;;;;8406790;28;19924;-72
2023/06/25 06:07:12;;;;;;;;;;;22.60;99.90;;;;;;8402329;28;19935;-72
2023/06/25 06:11:14;;;;;;;;;;;22.70;99.90;;;;;;8415667;28;20406;-72
2023/06/25 06:15:16;;;;;;;;;;;22.80;99.90;;;;;;8390813;28;19932;-72
2023/06/25 06:19:18;;;;;;;;;;;22.90;99.90;;;;;;8386258;28;20388;-72
2023/06/25 06:23:20;;;;;;;;;;;23.00;99.90;;;;;;8407005;28;20394;-72
2023/06/25 06:27:22;;;;;;;;;;;23.20;99.90;;;;;;8398204;28;20261;-72
2023/06/25 06:31:24;;;;;;;;;;;23.30;99.90;;;;;;8409637;28;19930;-72
2023/06/25 06:35:25;;;;;;;;;;;23.40;99.90;;;;;;8425480;28;19955;-72
2023/06/25 06:39:27;;;;;;;;;;;23.50;99.90;;;;;;8419524;28;20395;-72
2023/06/25 06:43:31;;;;;;;;;;;23.60;99.90;;;;;;8399321;28;20208;-72
2023/06/25 06:47:32;;;;;;;;;;;23.70;99.90;;;;;;8409034;28;19932;-72
2023/06/25 06:51:35;;;;;;;;;;;23.80;99.90;;;;;;8407651;28;19925;-72
2023/06/25 06:55:36;;;;;;;;;;;23.80;99.90;;;;;;8424878;28;19931;-72
2023/06/25 06:59:38;;;;;;;;;;;23.90;99.90;;;;;;8395429;28;19923;-72
2023/06/25 07:03:40;;;;;;;;;;;24.00;99.90;;;;;;8416381;28;20375;-72
2023/06/25 07:07:42;;;;;;;;;;;24.10;99.90;;;;;;8404825;28;19927;-73
2023/06/25 07:11:43;;;;;;;;;;;24.20;99.90;;;;;;8421043;28;19970;-72
2023/06/25 07:15:45;;;;;;;;;;;24.30;99.90;;;;;;8431856;28;19924;-72
2023/06/25 07:19:47;;;;;;;;;;;24.40;99.90;;;;;;8425065;28;19925;-72
2023/06/25 07:23:48;;;;;;;;;;;24.50;99.90;;;;;;8416091;28;20296;-72
2023/06/25 07:27:50;;;;;;;;;;;24.60;99.90;;;;;;8417913;28;19950;-72
2023/06/25 07:31:52;;;;;;;;;;;24.70;99.90;;;;;;8427541;28;19924;-73
2023/06/25 07:35:53;;;;;;;;;;;24.80;99.90;;;;;;8421338;28;19927;-72
2023/06/25 07:39:55;;;;;;;;;;;24.90;99.90;;;;;;8410593;28;19924;-72
2023/06/25 07:43:57;;;;;;;;;;;25.00;99.90;;;;;;8413163;28;20576;-72
2023/06/25 07:47:58;;;;;;;;;;;25.10;99.90;;;;;;8434923;27;19923;-73
2023/06/25 07:52:00;;;;;;;;;;;25.10;99.90;;;;;;8404014;28;19924;-72
2023/06/25 07:56:02;;;;;;;;;;;25.20;99.90;;;;;;8403455;28;19924;-72
2023/06/25 08:00:05;;;;;;;;;;;25.20;99.90;;;;;;8409547;28;19930;-72
2023/06/25 08:04:07;;;;;;;;;;;25.30;99.90;;;;;;8431788;28;19924;-72
2023/06/25 08:08:09;;;;;;;;;;;25.30;99.90;;;;;;8386953;28;19932;-72
2023/06/25 08:12:11;;;;;;;;;;;25.30;99.90;;;;;;8401589;28;19978;-72
2023/06/25 08:16:12;;;;;;;;;;;25.30;99.90;;;;;;8390648;28;19940;-72
2023/06/25 08:20:14;;;;;;;;;;;25.30;99.90;;;;;;8394122;28;19951;-72
2023/06/25 08:24:16;;;;;;;;;;;25.40;99.90;;;;;;8381294;28;19935;-72
2023/06/25 08:28:17;;;;;;;;;;;25.50;99.90;;;;;;8394447;28;19932;-72
2023/06/25 08:32:19;;;;;;;;;;;25.60;99.90;;;;;;8391988;28;19925;-73
2023/06/25 08:36:21;;;;;;;;;;;25.60;99.90;;;;;;8387910;28;19930;-72
2023/06/25 08:40:25;;;;;;;;;;;25.60;99.90;;;;;;8393075;28;19932;-72
2023/06/25 08:44:27;;;;;;;;;;;25.70;99.90;;;;;;8391308;28;19932;-72
2023/06/25 08:48:32;;;;;;;;;;;25.70;99.90;;;;;;8392684;28;20341;-72
2023/06/25 08:52:34;;;;;;;;;;;25.80;99.90;;;;;;8389762;28;20303;-72
2023/06/25 08:56:36;;;;;;;;;;;25.90;99.90;;;;;;8373592;28;19935;-72
2023/06/25 09:00:40;;;;;;;;;;;25.90;99.90;;;;;;8393879;28;19933;-73
2023/06/25 09:04:43;;;;;;;;;;;26.00;99.90;;;;;;8407358;28;19932;-72
2023/06/25 09:08:45;;;;;;;;;;;26.00;99.90;;;;;;8390590;28;19936;-73
2023/06/25 09:12:47;;;;;;;;;;;26.00;99.90;;;;;;8384314;28;19985;-72
2023/06/25 09:16:49;;;;;;;;;;;26.20;99.90;;;;;;8385349;28;19928;-72
2023/06/25 09:20:51;;;;;;;;;;;26.30;99.90;;;;;;8378252;28;19936;-73
2023/06/25 09:24:56;;;;;;;;;;;26.40;99.90;;;;;;8386130;28;19927;-73
2023/06/25 09:28:59;;;;;;;;;;;26.60;99.90;;;;;;8386633;28;20018;-73
2023/06/25 09:33:03;;;;;;;;;;;26.60;99.90;;;;;;8382581;28;19932;-73
2023/06/25 09:37:05;;;;;;;;;;;26.70;99.90;;;;;;8391058;28;19933;-73
2023/06/25 09:41:07;;;;;;;;;;;26.70;99.90;;;;;;8388835;28;19999;-72
2023/06/25 09:45:10;;;;;;;;;;;26.80;99.90;;;;;;8389618;28;19931;-73
2023/06/25 09:49:12;;;;;;;;;;;26.90;99.90;;;;;;8390772;28;19951;-73
2023/06/25 09:53:17;;;;;;;;;;;26.90;99.90;;;;;;8387956;28;20133;-73
2023/06/25 09:57:19;;;;;;;;;;;26.90;99.90;;;;;;8393377;28;19932;-73
2023/06/25 10:01:21;;;;;;;;;;;27.00;99.90;;;;;;8388000;28;20296;-73
2023/06/25 10:05:23;;;;;;;;;;;27.10;99.90;;;;;;8386387;28;20007;-74
2023/06/25 10:09:24;;;;;;;;;;;27.10;99.90;;;;;;8390613;28;19975;-73
2023/06/25 10:13:26;;;;;;;;;;;27.20;99.90;;;;;;8385319;28;19932;-73
2023/06/25 10:17:28;;;;;;;;;;;27.20;99.90;;;;;;8387039;28;19933;-73
2023/06/25 10:21:30;;;;;;;;;;;27.30;99.90;;;;;;8382134;28;20015;-74
2023/06/25 10:25:32;;;;;;;;;;;27.40;99.90;;;;;;8384774;28;19925;-73
2023/06/25 10:29:41;;;;;;;;;;;27.40;99.90;;;;;;8391812;28;21769;-74
2023/06/25 10:33:43;;;;;;;;;;;27.50;99.90;;;;;;8406648;27;19924;-73
2023/06/25 10:37:44;;;;;;;;;;;27.50;99.90;;;;;;8390698;28;19928;-74
2023/06/25 10:41:47;;;;;;;;;;;27.50;99.90;;;;;;8390629;28;19939;-74
2023/06/25 10:45:49;;;;;;;;;;;27.60;99.90;;;;;;8391789;28;20451;-73
2023/06/25 10:49:51;;;;;;;;;;;27.60;99.90;;;;;;8388655;28;19928;-74
2023/06/25 10:53:54;;;;;;;;;;;27.70;99.90;;;;;;8392613;28;19929;-73
2023/06/25 10:57:56;;;;;;;;;;;27.70;99.90;;;;;;8397108;28;19951;-74
2023/06/25 11:02:07;;;;;;;;;;;27.70;99.90;;;;;;8397476;28;20163;-74
2023/06/25 11:06:09;;;;;;;;;;;27.80;99.90;;;;;;8400521;28;19931;-73
2023/06/25 11:10:13;;;;;;;;;;;27.90;99.90;;;;;;8396032;28;20430;-74
2023/06/25 11:14:14;;;;;;;;;;;27.90;99.90;;;;;;8401561;28;19929;-74
2023/06/25 11:18:20;;;;;;;;;;;28.00;99.90;;;;;;8408550;28;20009;-74
2023/06/25 11:22:22;;;;;;;;;;;28.10;99.90;;;;;;8405591;28;19990;-74
2023/06/25 11:26:24;;;;;;;;;;;28.10;99.90;;;;;;8403603;28;19924;-73
2023/06/25 11:30:29;;;;;;;;;;;28.10;99.90;;;;;;8406937;28;19952;-74
2023/06/25 11:34:32;;;;;;;;;;;28.20;99.90;;;;;;8405246;28;20659;-74
2023/06/25 11:38:34;;;;;;;;;;;28.20;99.90;;;;;;8405581;28;19998;-73
2023/06/25 11:42:37;;;;;;;;;;;28.20;99.90;;;;;;8394445;28;19928;-73
2023/06/25 11:46:38;;;;;;;;;;;28.30;99.90;;;;;;8389970;28;19925;-73
2023/06/25 11:50:41;;;;;;;;;;;28.40;99.90;;;;;;8391018;28;19932;-74
2023/06/25 11:54:42;;;;;;;;;;;28.50;99.90;;;;;;8387154;28;20783;-74
2023/06/25 11:58:44;;;;;;;;;;;28.60;99.90;;;;;;8394644;28;19928;-74
2023/06/25 12:02:46;;;;;;;;;;;28.60;99.90;;;;;;8395343;28;19925;-73
2023/06/25 12:06:50;;;;;;;;;;;28.70;99.90;;;;;;8396502;28;20331;-74
2023/06/25 12:10:52;;;;;;;;;;;28.70;99.90;;;;;;8392892;28;19932;-74
2023/06/25 12:14:54;;;;;;;;;;;28.80;99.90;;;;;;8393737;28;19932;-74
2023/06/25 12:18:56;;;;;;;;;;;28.80;99.90;;;;;;8396334;28;20007;-75
2023/06/25 12:22:58;;;;;;;;;;;28.90;99.90;;;;;;8397978;28;20299;-74
2023/06/25 12:26:59;;;;;;;;;;;29.00;99.90;;;;;;8399420;28;19931;-75
2023/06/25 12:31:01;;;;;;;;;;;29.00;98.80;;;;;;8395023;28;19928;-74
2023/06/25 12:35:03;;;;;;;;;;;29.00;99.90;;;;;;8377560;28;19929;-74
2023/06/25 12:39:08;;;;;;;;;;;29.10;99.90;;;;;;8395044;28;19928;-74
2023/06/25 12:43:09;;;;;;;;;;;29.10;99.90;;;;;;8405792;28;19997;-73
2023/06/25 12:47:11;;;;;;;;;;;29.20;99.90;;;;;;8376802;28;20427;-75
2023/06/25 12:51:13;;;;;;;;;;;29.20;99.90;;;;;;8393170;28;19932;-74
2023/06/25 12:55:14;;;;;;;;;;;29.30;99.90;;;;;;8392582;28;19932;-74
2023/06/25 12:59:16;;;;;;;;;;;29.40;99.90;;;;;;8394032;28;19924;-74
2023/06/25 13:03:18;;;;;;;;;;;29.40;99.90;;;;;;8397590;28;19924;-74
2023/06/25 13:07:21;;;;;;;;;;;29.40;99.90;;;;;;8395522;28;20006;-73
2023/06/25 13:11:23;;;;;;;;;;;29.40;99.40;;;;;;8390358;28;20348;-74
2023/06/25 13:15:24;;;;;;;;;;;29.50;98.10;;;;;;8396615;28;19940;-74
2023/06/25 13:19:26;;;;;;;;;;;29.50;99.90;;;;;;8390234;28;19924;-73
2023/06/25 13:23:28;;;;;;;;;;;29.60;99.90;;;;;;8393593;28;19928;-74
2023/06/25 13:27:29;;;;;;;;;;;29.70;99.90;;;;;;8395623;28;20328;-74
2023/06/25 13:31:31;;;;;;;;;;;29.70;99.90;;;;;;8392638;28;19936;-74
2023/06/25 13:35:33;;;;;;;;;;;29.80;99.90;;;;;;8392260;28;19932;-74
2023/06/25 13:39:37;;;;;;;;;;;29.80;98.60;;;;;;8394382;28;20390;-75
2023/06/25 13:43:39;;;;;;;;;;;29.80;99.90;;;;;;8391951;28;20323;-75
2023/06/25 13:47:41;;;;;;;;;;;29.80;95.00;;;;;;8409994;28;20292;-75
2023/06/25 13:51:42;;;;;;;;;;;29.90;99.70;;;;;;8392337;28;20406;-74
2023/06/25 13:55:44;;;;;;;;;;;30.00;98.80;;;;;;8395718;28;19924;-74
2023/06/25 13:59:46;;;;;;;;;;;30.00;98.40;;;;;;8390284;28;19932;-75
2023/06/25 14:03:48;;;;;;;;;;;30.00;98.30;;;;;;8389130;28;19939;-75
2023/06/25 14:07:49;;;;;;;;;;;30.10;96.60;;;;;;8393573;28;20543;-74
2023/06/25 14:11:51;;;;;;;;;;;30.10;95.40;;;;;;8394910;28;19940;-74
2023/06/25 14:15:53;;;;;;;;;;;30.20;98.40;;;;;;8391552;28;19931;-74
2023/06/25 14:20:06;;;;;;;;;;;30.20;97.30;;;;;;8389890;28;20008;-74
2023/06/25 14:24:08;;;;;;;;;;;30.30;98.30;;;;;;8395214;28;19932;-74
2023/06/25 14:28:10;;;;;;;;;;;30.30;95.30;;;;;;8396778;28;19935;-74
2023/06/25 14:32:11;;;;;;;;;;;30.30;96.70;;;;;;8389926;28;19929;-74
2023/06/25 14:36:13;;;;;;;;;;;30.40;98.60;;;;;;8381191;28;20275;-74
2023/06/25 14:40:15;;;;;;;;;;;30.50;97.80;;;;;;8388632;28;19983;-74
2023/06/25 14:44:17;;;;;;;;;;;30.60;96.90;;;;;;8389937;28;19931;-74
2023/06/25 14:48:19;;;;;;;;;;;30.70;98.50;;;;;;8401397;28;19990;-74
2023/06/25 14:52:21;;;;;;;;;;;30.70;96.40;;;;;;8393814;28;19971;-73
2023/06/25 14:56:23;;;;;;;;;;;30.80;97.90;;;;;;8376021;28;20384;-74
2023/06/25 15:00:24;;;;;;;;;;;30.90;98.50;;;;;;8387881;28;20284;-74
2023/06/25 15:04:26;;;;;;;;;;;30.90;94.80;;;;;;8390853;28;19932;-74
2023/06/25 15:08:28;;;;;;;;;;;30.90;96.40;;;;;;8387999;28;19928;-74
2023/06/25 15:12:30;;;;;;;;;;;31.00;97.70;;;;;;8389545;28;19924;-74
2023/06/25 15:16:32;;;;;;;;;;;31.00;98.00;;;;;;8392007;28;19928;-74
2023/06/25 15:20:34;;;;;;;;;;;31.00;98.30;;;;;;8380824;28;19985;-74
2023/06/25 15:24:35;;;;;;;;;;;31.10;96.50;;;;;;8396306;28;20227;-73
2023/06/25 15:28:37;;;;;;;;;;;31.00;92.50;;;;;;8408646;27;19929;-73
2023/06/25 15:32:39;;;;;;;;;;;31.10;96.10;;;;;;8395028;28;19976;-74
2023/06/25 15:36:42;;;;;;;;;;;31.10;94.50;;;;;;8395091;28;19925;-73
2023/06/25 15:40:44;;;;;;;;;;;31.10;95.90;;;;;;8393510;28;19924;-74
2023/06/25 15:44:46;;;;;;;;;;;31.10;94.50;;;;;;8391978;28;19928;-73
2023/06/25 15:48:48;;;;;;;;;;;31.10;94.20;;;;;;8393838;28;19928;-74
2023/06/25 15:52:49;;;;;;;;;;;31.20;96.40;;;;;;8390327;28;19928;-75
2023/06/25 15:56:51;;;;;;;;;;;31.30;94.00;;;;;;8399108;28;20347;-73
2023/06/25 16:00:53;;;;;;;;;;;31.30;95.60;;;;;;8399748;28;20371;-73
2023/06/25 16:04:54;;;;;;;;;;;31.50;93.00;;;;;;8393353;28;19930;-74
2023/06/25 16:08:56;;;;;;;;;;;31.70;93.60;;;;;;8417638;27;19940;-73
2023/06/25 16:12:58;;;;;;;;;;;31.90;92.10;;;;;;8398261;28;19935;-73
2023/06/25 16:16:59;;;;;;;;;;;32.10;92.10;;;;;;8392190;28;19928;-73
2023/06/25 16:21:01;;;;;;;;;;;32.30;94.40;;;;;;8402364;27;20635;-73
2023/06/25 16:25:03;;;;;;;;;;;32.40;95.30;;;;;;8384910;28;19954;-73
2023/06/25 16:29:05;;;;;;;;;;;32.50;93.60;;;;;;8385648;28;20443;-74
2023/06/25 16:33:06;;;;;;;;;;;32.70;90.10;;;;;;8393921;28;19955;-74
2023/06/25 16:37:08;;;;;;;;;;;32.90;95.10;;;;;;8397078;28;20264;-73
2023/06/25 16:41:10;;;;;;;;;;;33.10;92.70;;;;;;8392700;28;19925;-73
2023/06/25 16:45:12;;;;;;;;;;;33.30;91.80;;;;;;8392400;28;19971;-73
2023/06/25 16:49:14;;;;;;;;;;;33.30;95.40;;;;;;8396740;28;19935;-73
2023/06/25 16:53:16;;;;;;;;;;;33.40;95.30;;;;;;8411036;27;19936;-73
2023/06/25 16:57:17;;;;;;;;;;;33.40;92.20;;;;;;8396553;28;19971;-74
2023/06/25 17:01:19;;;;;;;;;;;33.40;96.30;;;;;;8374938;28;19924;-74
2023/06/25 17:05:21;;;;;;;;;;;33.30;96.70;;;;;;8385819;28;19967;-73
2023/06/25 17:09:22;;;;;;;;;;;33.20;96.10;;;;;;8391397;28;20339;-73
2023/06/25 17:13:24;;;;;;;;;;;33.00;94.30;;;;;;8391570;28;19947;-74
2023/06/25 17:17:26;;;;;;;;;;;32.90;94.30;;;;;;8393474;28;19974;-73
2023/06/25 17:21:28;;;;;;;;;;;32.60;94.50;;;;;;8396692;28;19924;-74
2023/06/25 17:25:30;;;;;;;;;;;32.40;94.50;;;;;;8395050;28;19928;-74
2023/06/25 17:29:31;;;;;;;;;;;32.20;94.60;;;;;;8391046;28;20391;-74
2023/06/25 17:33:33;;;;;;;;;;;32.10;95.10;;;;;;8393293;28;19975;-73
2023/06/25 17:37:35;;;;;;;;;;;32.00;94.30;;;;;;8393736;28;19940;-73
2023/06/25 17:41:37;;;;;;;;;;;31.90;93.40;;;;;;8377125;28;19927;-74
2023/06/25 17:45:38;;;;;;;;;;;31.90;91.30;;;;;;8386860;28;19935;-74
2023/06/25 17:49:40;;;;;;;;;;;31.80;94.20;;;;;;8384476;28;19925;-73
2023/06/25 17:53:42;;;;;;;;;;;31.70;93.80;;;;;;8395346;28;20058;-73
2023/06/25 17:57:43;;;;;;;;;;;31.70;93.40;;;;;;8388370;28;19975;-74
2023/06/25 18:01:45;;;;;;;;;;;31.60;93.60;;;;;;8385094;28;19924;-74
2023/06/25 18:05:47;;;;;;;;;;;31.60;93.80;;;;;;8399361;28;19924;-74
2023/06/25 18:09:48;;;;;;;;;;;31.50;92.90;;;;;;8387518;28;19995;-74
2023/06/25 18:13:50;;;;;;;;;;;31.50;93.70;;;;;;8387320;28;19928;-73
2023/06/25 18:17:55;;;;;;;;;;;31.50;93.50;;;;;;8392018;28;19928;-73
2023/06/25 18:21:57;;;;;;;;;;;31.40;93.70;;;;;;8387941;28;19928;-73
2023/06/25 18:25:58;;;;;;;;;;;31.30;93.40;;;;;;8391667;28;20376;-74
2023/06/25 18:30:00;;;;;;;;;;;31.30;93.50;;;;;;8380183;28;19929;-74
2023/06/25 18:34:02;;;;;;;;;;;31.30;93.20;;;;;;8385687;28;20330;-73
2023/06/25 18:38:03;;;;;;;;;;;31.20;93.50;;;;;;8357138;28;21070;-73
2023/06/25 18:42:06;;;;;;;;;;;31.10;92.90;;;;;;8346536;28;20376;-74
2023/06/25 18:46:08;;;;;;;;;;;31.00;93.30;;;;;;8343800;28;19928;-73
2023/06/25 18:50:09;;;;;;;;;;;30.90;93.40;;;;;;8361549;28;19925;-73
2023/06/25 18:54:11;;;;;;;;;;;30.90;93.00;;;;;;8366343;28;19947;-74
2023/06/25 18:58:15;;;;;;;;;;;30.80;93.40;;;;;;8355148;28;20434;-74
2023/06/25 19:02:17;;;;;;;;;;;30.80;93.40;;;;;;8363564;28;19944;-74
2023/06/25 19:06:18;;;;;;;;;;;30.70;93.80;;;;;;8367396;28;20323;-73
2023/06/25 19:10:20;;;;;;;;;;;30.70;94.00;;;;;;8368272;28;19931;-74
2023/06/25 19:14:22;;;;;;;;;;;30.60;94.00;;;;;;8359334;28;20537;-73
2023/06/25 19:18:23;;;;;;;;;;;30.40;93.80;;;;;;8365480;28;19925;-73
2023/06/25 19:22:25;;;;;;;;;;;30.40;94.10;;;;;;8364112;28;20393;-74
2023/06/25 19:26:27;;;;;;;;;;;30.30;94.00;;;;;;8369300;28;19935;-74
2023/06/25 19:30:28;;;;;;;;;;;30.20;94.40;;;;;;8364588;28;20182;-74
2023/06/25 19:34:30;;;;;;;;;;;30.10;94.60;;;;;;8357319;28;20048;-73
2023/06/25 19:38:32;;;;;;;;;;;29.90;94.80;;;;;;8384830;28;19929;-73
2023/06/25 19:42:35;;;;;;;;;;;29.80;94.60;;;;;;8416047;27;19925;-74
2023/06/25 19:46:37;;;;;;;;;;;29.60;95.10;;;;;;8394374;28;19941;-73
2023/06/25 19:50:39;;;;;;;;;;;29.40;95.40;;;;;;8382199;28;19933;-74
2023/06/25 19:54:41;;;;;;;;;;;29.20;95.30;;;;;;8404814;28;19925;-74
2023/06/25 19:58:42;;;;;;;;;;;29.00;95.60;;;;;;8411728;27;19924;-74
2023/06/25 20:02:44;;;;;;;;;;;28.80;95.60;;;;;;8393627;28;19924;-73
2023/06/25 20:06:46;;;;;;;;;;;28.70;95.70;;;;;;8394196;28;19925;-73
2023/06/25 20:10:48;;;;;;;;;;;28.50;96.00;;;;;;8393884;28;19935;-74
2023/06/25 20:14:49;;;;;;;;;;;28.40;96.00;;;;;;8396317;28;19929;-74
2023/06/25 20:18:51;;;;;;;;;;;28.30;96.10;;;;;;8395020;28;19936;-73
2023/06/25 20:22:53;;;;;;;;;;;28.10;96.30;;;;;;8392298;28;20339;-74
2023/06/25 20:26:54;;;;;;;;;;;28.00;96.10;;;;;;8394962;28;19924;-74
2023/06/25 20:30:56;;;;;;;;;;;27.80;96.30;;;;;;8394640;28;19924;-73
2023/06/25 20:34:58;;;;;;;;;;;27.70;95.70;;;;;;8394284;28;19942;-74
2023/06/25 20:38:59;;;;;;;;;;;27.60;96.10;;;;;;8389487;28;20555;-73
2023/06/25 20:58:46;;;;;;;;;;;27.30;96.70;;;;;;8393219;28;19924;-73
2023/06/25 21:02:53;;;;;;;;;;;27.20;96.60;;;;;;8425528;27;20391;-74
2023/06/25 21:06:55;;;;;;;;;;;27.10;96.80;;;;;;8414381;28;20387;-73
2023/06/25 21:10:57;;;;;;;;;;;27.00;96.70;;;;;;8442206;27;20280;-73
2023/06/25 21:14:58;;;;;;;;;;;27.00;96.90;;;;;;8425384;28;19951;-73
2023/06/25 21:19:00;;;;;;;;;;;26.90;96.80;;;;;;8434614;27;19924;-73
2023/06/25 21:23:02;;;;;;;;;;;26.80;96.10;;;;;;8427249;28;20316;-74
2023/06/25 21:27:03;;;;;;;;;;;26.70;96.50;;;;;;8424039;28;19928;-73
2023/06/25 21:31:05;;;;;;;;;;;26.60;96.10;;;;;;8426336;28;19924;-74
2023/06/25 21:35:31;;;;;;;;;;;26.60;96.70;;;;;;8409894;28;19931;-73
2023/06/25 21:39:33;;;;;;;;;;;26.50;96.30;;;;;;8418356;28;19939;-74
2023/06/25 21:43:35;;;;;;;;;;;26.40;96.70;;;;;;8402841;28;19924;-74
2023/06/25 21:47:36;;;;;;;;;;;26.30;97.30;;;;;;8417063;28;19962;-75
2023/06/25 21:51:38;;;;;;;;;;;26.20;97.30;;;;;;8426989;28;20042;-74
2023/06/25 21:55:40;;;;;;;;;;;26.10;96.40;;;;;;8417448;28;20293;-74
2023/06/25 21:59:41;;;;;;;;;;;26.00;97.80;;;;;;8422492;28;19931;-73
2023/06/25 22:03:43;;;;;;;;;;;25.90;97.50;;;;;;8421809;28;19951;-74
2023/06/25 22:07:45;;;;;;;;;;;25.70;97.20;;;;;;8411052;28;19927;-74
2023/06/25 22:11:49;;;;;;;;;;;25.60;97.50;;;;;;8410860;28;20322;-74
2023/06/25 22:15:51;;;;;;;;;;;25.60;98.10;;;;;;8424996;28;19970;-73
2023/06/25 22:19:53;;;;;;;;;;;25.50;98.10;;;;;;8436280;28;19924;-74
2023/06/25 22:23:55;;;;;;;;;;;25.50;97.50;;;;;;8424858;28;20390;-74
2023/06/25 22:27:57;;;;;;;;;;;25.40;97.60;;;;;;8428155;28;19924;-73
2023/06/25 22:31:58;;;;;;;;;;;25.30;98.00;;;;;;8424641;28;19928;-73
2023/06/25 22:36:00;;;;;;;;;;;25.20;98.20;;;;;;8432760;28;20384;-73
2023/06/25 22:40:04;;;;;;;;;;;25.20;98.20;;;;;;8425878;28;19977;-74
2023/06/25 22:44:06;;;;;;;;;;;25.10;98.40;;;;;;8429660;28;19973;-73
2023/06/25 22:48:07;;;;;;;;;;;25.10;97.80;;;;;;8435117;28;19924;-73
2023/06/25 22:52:09;;;;;;;;;;;25.10;98.30;;;;;;8400604;28;20296;-73
2023/06/25 22:56:11;;;;;;;;;;;25.00;98.30;;;;;;8433010;28;20379;-73
2023/06/25 23:00:13;;;;;;;;;;;24.90;99.00;;;;;;8417844;28;20287;-73
2023/06/25 23:04:15;;;;;;;;;;;24.90;99.60;;;;;;8424413;28;19931;-74
2023/06/25 23:08:16;;;;;;;;;;;24.80;98.70;;;;;;8422364;28;20384;-73
2023/06/25 23:12:18;;;;;;;;;;;24.80;99.20;;;;;;8416740;28;20371;-73
2023/06/25 23:16:22;;;;;;;;;;;24.70;99.20;;;;;;8425074;28;19924;-73
2023/06/25 23:20:24;;;;;;;;;;;24.60;99.10;;;;;;8397474;28;19928;-74
2023/06/25 23:24:37;;;;;;;;;;;24.60;99.30;;;;;;8428605;28;19970;-73
2023/06/25 23:28:39;;;;;;;;;;;24.60;99.20;;;;;;8439157;28;19927;-74
2023/06/25 23:32:41;;;;;;;;;;;24.50;99.40;;;;;;8432457;28;20298;-74
2023/06/25 23:36:42;;;;;;;;;;;24.40;98.90;;;;;;8416755;28;19975;-73
2023/06/25 23:40:44;;;;;;;;;;;24.40;99.90;;;;;;8402275;28;19947;-74
2023/06/25 23:44:46;;;;;;;;;;;24.30;99.40;;;;;;8424977;28;19946;-74